Time,TemperatureF,DewpointF,PressureIn,WindDirection,WindDirectionDegrees,WindSpeedMPH,WindSpeedGustMPH,Humidity,HourlyPrecipIn,Conditions,Clouds,dailyrainin,SoftwareType,DateUTC
2013-01-11 00:03:00,25.6,23.3,27.36,SW,225,0.0,0.4,91,0.00,,,0.00,WUHU216HW,2013-01-11 08:03:00,
2013-01-11 00:08:00,25.6,23.3,27.36,SW,225,0.2,0.2,91,0.00,,,0.00,WUHU216HW,2013-01-11 08:08:00,
2013-01-11 00:13:00,25.6,23.3,27.36,SW,225,0.0,0.2,91,0.00,,,0.00,WUHU216HW,2013-01-11 08:13:00,
2013-01-11 00:18:00,25.6,23.3,27.36,SW,225,0.0,0.2,91,0.00,,,0.00,WUHU216HW,2013-01-11 08:18:00,
2013-01-11 00:23:00,25.6,23.3,27.36,SW,225,0.0,0.4,91,0.00,,,0.00,WUHU216HW,2013-01-11 08:23:00,
2013-01-11 00:28:00,25.6,23.3,27.36,SW,225,0.2,0.4,91,0.00,,,0.00,WUHU216HW,2013-01-11 08:28:00,
2013-01-11 00:33:00,25.6,23.3,27.36,SW,225,0.0,0.4,91,0.00,,,0.00,WUHU216HW,2013-01-11 08:33:00,
2013-01-11 00:38:00,25.6,23.3,27.37,SW,225,0.0,0.4,91,0.00,,,0.00,WUHU216HW,2013-01-11 08:38:00,
2013-01-11 00:43:00,25.6,23.3,27.36,SW,225,0.0,0.4,91,0.00,,,0.00,WUHU216HW,2013-01-11 08:43:00,
2013-01-11 00:48:00,25.4,23.1,27.36,SW,225,0.4,0.4,91,0.00,,,0.00,WUHU216HW,2013-01-11 08:48:00,
2013-01-11 00:53:00,25.4,23.1,27.37,SW,225,0.9,0.9,91,0.00,,,0.00,WUHU216HW,2013-01-11 08:53:00,
2013-01-11 00:58:00,25.2,23.0,27.37,SW,225,0.2,0.9,91,0.00,,,0.00,WUHU216HW,2013-01-11 08:58:00,
2013-01-11 01:03:00,25.2,23.0,27.37,SW,225,0.0,0.7,91,0.00,,,0.00,WUHU216HW,2013-01-11 09:03:00,
2013-01-11 01:08:00,25.2,23.0,27.37,SW,225,0.2,0.7,91,0.00,,,0.00,WUHU216HW,2013-01-11 09:08:00,
2013-01-11 01:13:00,25.2,23.0,27.38,SW,225,0.0,0.4,91,0.00,,,0.00,WUHU216HW,2013-01-11 09:13:00,
2013-01-11 01:18:00,25.2,23.0,27.38,SW,225,0.0,0.4,91,0.00,,,0.00,WUHU216HW,2013-01-11 09:18:00,
2013-01-11 01:23:00,25.2,23.0,27.38,SW,225,0.2,0.4,91,0.00,,,0.00,WUHU216HW,2013-01-11 09:23:00,
2013-01-11 01:28:00,25.2,23.0,27.38,SW,225,0.0,0.4,91,0.00,,,0.00,WUHU216HW,2013-01-11 09:28:00,
2013-01-11 01:33:00,25.4,23.1,27.38,SW,225,0.0,0.4,91,0.00,,,0.00,WUHU216HW,2013-01-11 09:33:00,
2013-01-11 01:38:00,25.4,23.1,27.39,SW,225,0.0,1.1,91,0.00,,,0.00,WUHU216HW,2013-01-11 09:38:00,
2013-01-11 01:43:00,25.4,23.1,27.39,SW,225,0.0,1.1,91,0.00,,,0.00,WUHU216HW,2013-01-11 09:43:00,
2013-01-11 01:48:00,25.6,23.3,27.39,SW,225,0.0,0.4,91,0.00,,,0.00,WUHU216HW,2013-01-11 09:48:00,
2013-01-11 01:53:00,25.6,23.3,27.39,SW,225,0.4,0.4,91,0.00,,,0.00,WUHU216HW,2013-01-11 09:53:00,
2013-01-11 01:58:00,25.6,23.6,27.39,SW,225,0.2,0.4,92,0.00,,,0.00,WUHU216HW,2013-01-11 09:58:00,
2013-01-11 02:03:00,25.6,23.3,27.40,SW,225,0.0,0.2,91,0.00,,,0.00,WUHU216HW,2013-01-11 10:03:00,
2013-01-11 02:08:00,25.6,23.3,27.40,SW,225,0.0,0.2,91,0.00,,,0.00,WUHU216HW,2013-01-11 10:08:00,
2013-01-11 02:13:00,25.6,23.3,27.40,SW,225,0.0,0.7,91,0.00,,,0.00,WUHU216HW,2013-01-11 10:13:00,
2013-01-11 02:18:00,25.6,23.3,27.40,SW,225,0.0,0.7,91,0.00,,,0.00,WUHU216HW,2013-01-11 10:18:00,
2013-01-11 02:23:00,25.6,23.3,27.40,SW,225,0.2,0.4,91,0.00,,,0.00,WUHU216HW,2013-01-11 10:23:00,
2013-01-11 02:28:00,25.6,23.3,27.40,SW,225,0.4,0.9,91,0.00,,,0.00,WUHU216HW,2013-01-11 10:28:00,
2013-01-11 02:33:00,25.6,23.3,27.41,SW,225,0.0,0.9,91,0.00,,,0.00,WUHU216HW,2013-01-11 10:33:00,
2013-01-11 02:38:00,25.6,23.3,27.40,SW,225,0.0,1.1,91,0.00,,,0.00,WUHU216HW,2013-01-11 10:38:00,
2013-01-11 02:43:00,25.6,23.3,27.41,SW,225,0.0,1.1,91,0.00,,,0.00,WUHU216HW,2013-01-11 10:43:00,
2013-01-11 02:48:00,25.6,23.3,27.41,SW,225,0.0,0.2,91,0.00,,,0.00,WUHU216HW,2013-01-11 10:48:00,
2013-01-11 02:53:00,25.6,23.3,27.41,SW,225,0.0,0.2,91,0.00,,,0.00,WUHU216HW,2013-01-11 10:53:00,
2013-01-11 02:58:00,25.4,23.1,27.41,SW,225,0.0,0.2,91,0.00,,,0.00,WUHU216HW,2013-01-11 10:58:00,
2013-01-11 03:03:00,25.4,23.1,27.41,SW,225,0.0,0.0,91,0.00,,,0.00,WUHU216HW,2013-01-11 11:03:00,
2013-01-11 03:08:00,25.4,23.1,27.41,SW,225,0.0,0.0,91,0.00,,,0.00,WUHU216HW,2013-01-11 11:08:00,
2013-01-11 03:13:00,25.2,23.0,27.41,SW,225,0.0,0.2,91,0.00,,,0.00,WUHU216HW,2013-01-11 11:13:00,
2013-01-11 03:18:00,25.2,23.0,27.41,SW,225,0.4,0.9,91,0.00,,,0.00,WUHU216HW,2013-01-11 11:18:00,
2013-01-11 03:23:00,25.0,22.8,27.41,SW,225,0.4,0.9,91,0.00,,,0.00,WUHU216HW,2013-01-11 11:23:00,
2013-01-11 03:28:00,24.8,22.6,27.42,SW,225,0.0,0.4,91,0.00,,,0.00,WUHU216HW,2013-01-11 11:28:00,
2013-01-11 03:32:00,24.7,22.4,27.42,SW,225,0.0,0.4,91,0.00,,,0.00,WUHU216HW,2013-01-11 11:32:00,
2013-01-11 03:38:00,24.5,22.0,27.42,SW,225,0.0,0.0,90,0.00,,,0.00,WUHU216HW,2013-01-11 11:38:00,
2013-01-11 03:42:00,24.1,21.6,27.42,SW,225,0.0,0.0,90,0.00,,,0.00,WUHU216HW,2013-01-11 11:42:00,
2013-01-11 03:47:00,23.9,21.4,27.42,SW,225,0.0,0.2,90,0.00,,,0.00,WUHU216HW,2013-01-11 11:47:00,
2013-01-11 03:52:00,23.6,21.1,27.42,SW,225,0.0,0.2,90,0.00,,,0.00,WUHU216HW,2013-01-11 11:52:00,
2013-01-11 03:57:00,23.6,21.3,27.42,SW,225,0.0,0.0,91,0.00,,,0.00,WUHU216HW,2013-01-11 11:57:00,
2013-01-11 04:02:00,23.4,21.2,27.42,SW,225,0.0,0.4,91,0.00,,,0.00,WUHU216HW,2013-01-11 12:02:00,
2013-01-11 04:07:00,23.4,21.2,27.43,SW,225,0.0,0.4,91,0.00,,,0.00,WUHU216HW,2013-01-11 12:07:00,
2013-01-11 04:13:00,23.4,21.2,27.43,SW,225,0.0,0.2,91,0.00,,,0.00,WUHU216HW,2013-01-11 12:13:00,
2013-01-11 04:18:00,23.4,21.2,27.43,SW,225,0.0,0.0,91,0.00,,,0.00,WUHU216HW,2013-01-11 12:18:00,
2013-01-11 04:22:00,23.2,21.0,27.43,SW,225,0.0,0.0,91,0.00,,,0.00,WUHU216HW,2013-01-11 12:22:00,
2013-01-11 04:27:00,23.0,20.8,27.43,SW,225,0.0,0.0,91,0.00,,,0.00,WUHU216HW,2013-01-11 12:27:00,
2013-01-11 04:32:00,23.0,20.8,27.43,SW,225,0.0,0.0,91,0.00,,,0.00,WUHU216HW,2013-01-11 12:32:00,
2013-01-11 04:37:00,22.9,20.6,27.44,SW,225,0.0,0.0,91,0.00,,,0.00,WUHU216HW,2013-01-11 12:37:00,
2013-01-11 04:42:00,22.7,20.4,27.44,SW,225,0.0,0.0,91,0.00,,,0.00,WUHU216HW,2013-01-11 12:42:00,
2013-01-11 04:47:00,22.7,20.4,27.44,SW,225,0.0,0.0,91,0.00,,,0.00,WUHU216HW,2013-01-11 12:47:00,
2013-01-11 04:52:00,22.7,20.4,27.44,SW,225,0.0,0.0,91,0.00,,,0.00,WUHU216HW,2013-01-11 12:52:00,
2013-01-11 04:57:00,22.5,20.3,27.44,SW,225,0.0,0.0,91,0.00,,,0.00,WUHU216HW,2013-01-11 12:57:00,
2013-01-11 05:02:00,22.3,20.1,27.45,SW,225,0.0,0.4,91,0.00,,,0.00,WUHU216HW,2013-01-11 13:02:00,
2013-01-11 05:07:00,22.1,19.9,27.45,SW,225,0.0,0.4,91,0.00,,,0.00,WUHU216HW,2013-01-11 13:07:00,
2013-01-11 05:12:00,22.0,19.7,27.45,SW,225,0.0,0.0,91,0.00,,,0.00,WUHU216HW,2013-01-11 13:12:00,
2013-01-11 05:17:00,22.0,19.7,27.45,SW,225,0.0,0.0,91,0.00,,,0.00,WUHU216HW,2013-01-11 13:17:00,
2013-01-11 05:22:00,21.6,19.4,27.45,SW,225,0.0,0.0,91,0.00,,,0.00,WUHU216HW,2013-01-11 13:22:00,
2013-01-11 05:27:00,21.6,19.4,27.46,SW,225,0.0,0.0,91,0.00,,,0.00,WUHU216HW,2013-01-11 13:27:00,
2013-01-11 05:32:00,21.2,19.0,27.46,SW,225,0.0,0.0,91,0.00,,,0.00,WUHU216HW,2013-01-11 13:32:00,
2013-01-11 05:37:00,21.2,19.0,27.46,SW,225,0.0,0.0,91,0.00,,,0.00,WUHU216HW,2013-01-11 13:37:00,
2013-01-11 05:42:00,21.1,18.8,27.47,SW,225,0.0,0.0,91,0.00,,,0.00,WUHU216HW,2013-01-11 13:42:00,
2013-01-11 05:47:00,21.1,18.8,27.47,SW,225,0.0,0.0,91,0.00,,,0.00,WUHU216HW,2013-01-11 13:47:00,
2013-01-11 05:52:00,21.1,18.8,27.48,SW,225,0.0,0.0,91,0.00,,,0.00,WUHU216HW,2013-01-11 13:52:00,
2013-01-11 05:57:00,21.1,18.8,27.48,SW,225,0.0,0.0,91,0.00,,,0.00,WUHU216HW,2013-01-11 13:57:00,
2013-01-11 06:02:00,21.1,18.8,27.48,SW,225,0.0,0.0,91,0.00,,,0.00,WUHU216HW,2013-01-11 14:02:00,
2013-01-11 06:07:00,20.9,18.6,27.48,SW,225,0.0,0.0,91,0.00,,,0.00,WUHU216HW,2013-01-11 14:07:00,
2013-01-11 06:13:00,20.9,18.6,27.48,SW,225,0.0,0.0,91,0.00,,,0.00,WUHU216HW,2013-01-11 14:13:00,
2013-01-11 06:18:00,20.9,18.6,27.49,SW,225,0.0,0.0,91,0.00,,,0.00,WUHU216HW,2013-01-11 14:18:00,
2013-01-11 06:22:00,20.9,18.9,27.49,SW,225,0.0,0.0,92,0.00,,,0.00,WUHU216HW,2013-01-11 14:22:00,
2013-01-11 06:28:00,20.9,18.9,27.49,SW,225,0.0,0.0,92,0.00,,,0.00,WUHU216HW,2013-01-11 14:28:00,
2013-01-11 06:33:00,21.1,19.1,27.50,SW,225,0.0,0.0,92,0.00,,,0.00,WUHU216HW,2013-01-11 14:33:00,
2013-01-11 06:38:00,21.1,19.1,27.50,SW,225,0.0,0.2,92,0.00,,,0.00,WUHU216HW,2013-01-11 14:38:00,
2013-01-11 06:43:00,21.2,19.3,27.50,SW,225,0.0,0.2,92,0.00,,,0.00,WUHU216HW,2013-01-11 14:43:00,
2013-01-11 06:48:00,21.2,19.3,27.51,SW,225,0.0,0.0,92,0.00,,,0.00,WUHU216HW,2013-01-11 14:48:00,
2013-01-11 06:52:00,21.2,19.3,27.51,SW,225,0.0,0.0,92,0.00,,,0.00,WUHU216HW,2013-01-11 14:52:00,
2013-01-11 06:58:00,21.2,19.3,27.51,SW,225,0.2,0.2,92,0.00,,,0.00,WUHU216HW,2013-01-11 14:58:00,
2013-01-11 07:02:00,21.2,19.3,27.51,SW,225,0.0,0.2,92,0.00,,,0.00,WUHU216HW,2013-01-11 15:02:00,
2013-01-11 07:07:00,21.1,19.1,27.51,SW,225,0.0,0.0,92,0.00,,,0.00,WUHU216HW,2013-01-11 15:07:00,
2013-01-11 07:13:00,20.9,18.9,27.51,SW,225,0.0,0.0,92,0.00,,,0.00,WUHU216HW,2013-01-11 15:13:00,
2013-01-11 07:17:00,20.9,18.9,27.52,SW,225,0.0,0.0,92,0.00,,,0.00,WUHU216HW,2013-01-11 15:17:00,
2013-01-11 07:22:00,20.9,18.9,27.52,SW,225,0.0,0.0,92,0.00,,,0.00,WUHU216HW,2013-01-11 15:22:00,
2013-01-11 07:27:00,20.7,18.7,27.52,SW,225,0.0,0.0,92,0.00,,,0.00,WUHU216HW,2013-01-11 15:27:00,
2013-01-11 07:32:00,20.7,18.7,27.53,SW,225,0.0,0.0,92,0.00,,,0.00,WUHU216HW,2013-01-11 15:32:00,
2013-01-11 07:37:00,20.5,18.6,27.53,SW,225,0.0,0.0,92,0.00,,,0.00,WUHU216HW,2013-01-11 15:37:00,
2013-01-11 07:42:00,20.5,18.6,27.53,SW,225,0.0,0.4,92,0.00,,,0.00,WUHU216HW,2013-01-11 15:42:00,
2013-01-11 07:47:00,20.3,18.4,27.53,SW,225,0.0,0.4,92,0.00,,,0.00,WUHU216HW,2013-01-11 15:47:00,
2013-01-11 07:53:00,20.0,17.7,27.53,SW,225,0.0,0.0,91,0.00,,,0.00,WUHU216HW,2013-01-11 15:53:00,
2013-01-11 07:58:00,19.8,17.6,27.53,SW,225,0.0,0.0,91,0.00,,,0.00,WUHU216HW,2013-01-11 15:58:00,
2013-01-11 08:03:00,19.8,17.6,27.53,SW,225,0.0,0.0,91,0.00,,,0.00,WUHU216HW,2013-01-11 16:03:00,
2013-01-11 08:08:00,19.8,17.6,27.54,SW,225,0.0,0.0,91,0.00,,,0.00,WUHU216HW,2013-01-11 16:08:00,
2013-01-11 08:13:00,19.8,17.6,27.54,SW,225,0.0,0.0,91,0.00,,,0.00,WUHU216HW,2013-01-11 16:13:00,
2013-01-11 08:18:00,20.0,17.7,27.54,SW,225,0.0,0.0,91,0.00,,,0.00,WUHU216HW,2013-01-11 16:18:00,
2013-01-11 08:23:00,20.0,17.7,27.54,SW,225,0.0,0.0,91,0.00,,,0.00,WUHU216HW,2013-01-11 16:23:00,
2013-01-11 08:28:00,19.8,17.3,27.54,SW,225,0.0,0.0,90,0.00,,,0.00,WUHU216HW,2013-01-11 16:28:00,
2013-01-11 08:34:00,19.8,17.3,27.54,SW,225,0.0,0.0,90,0.00,,,0.00,WUHU216HW,2013-01-11 16:34:00,
2013-01-11 08:39:00,20.5,18.6,27.55,SW,225,0.0,0.0,92,0.00,,,0.00,WUHU216HW,2013-01-11 16:39:00,
2013-01-11 08:44:00,22.1,20.2,27.55,SW,225,0.0,0.0,92,0.00,,,0.00,WUHU216HW,2013-01-11 16:44:00,
2013-01-11 08:49:00,22.9,20.6,27.55,SW,225,0.0,0.0,91,0.00,,,0.00,WUHU216HW,2013-01-11 16:49:00,
2013-01-11 08:54:00,22.5,20.0,27.55,SW,225,0.0,0.2,90,0.00,,,0.00,WUHU216HW,2013-01-11 16:54:00,
2013-01-11 08:59:00,22.0,19.2,27.56,SW,225,0.0,0.2,89,0.00,,,0.00,WUHU216HW,2013-01-11 16:59:00,
2013-01-11 09:04:00,22.0,19.2,27.56,SW,225,0.2,0.2,89,0.00,,,0.00,WUHU216HW,2013-01-11 17:04:00,
2013-01-11 09:09:00,22.3,19.5,27.56,SW,225,0.2,0.4,89,0.00,,,0.00,WUHU216HW,2013-01-11 17:09:00,
2013-01-11 09:14:00,22.5,19.7,27.56,SW,225,0.0,0.4,89,0.00,,,0.00,WUHU216HW,2013-01-11 17:14:00,
2013-01-11 09:19:00,23.4,20.6,27.56,SW,225,0.0,0.4,89,0.00,,,0.00,WUHU216HW,2013-01-11 17:19:00,
2013-01-11 09:24:00,24.8,22.1,27.57,SW,225,0.0,0.4,89,0.00,,,0.00,WUHU216HW,2013-01-11 17:24:00,
2013-01-11 09:29:00,25.6,22.8,27.57,SW,225,0.0,0.4,89,0.00,,,0.00,WUHU216HW,2013-01-11 17:29:00,
2013-01-11 09:34:00,27.5,24.1,27.58,SW,225,0.2,0.4,87,0.00,,,0.00,WUHU216HW,2013-01-11 17:34:00,
2013-01-11 09:39:00,28.4,24.2,27.58,SW,225,1.1,1.1,84,0.00,,,0.00,WUHU216HW,2013-01-11 17:39:00,
2013-01-11 09:44:00,28.6,23.0,27.58,SW,225,1.1,1.1,79,0.00,,,0.00,WUHU216HW,2013-01-11 17:44:00,
2013-01-11 09:49:00,29.7,25.2,27.58,SW,225,0.0,1.1,83,0.00,,,0.00,WUHU216HW,2013-01-11 17:49:00,
2013-01-11 09:54:00,30.2,25.1,27.58,SW,225,0.2,0.2,81,0.00,,,0.00,WUHU216HW,2013-01-11 17:54:00,
2013-01-11 09:59:00,30.6,24.6,27.58,SW,225,0.0,1.1,78,0.00,,,0.00,WUHU216HW,2013-01-11 17:59:00,
2013-01-11 10:04:00,31.0,24.3,27.58,SW,225,0.0,1.1,76,0.00,,,0.00,WUHU216HW,2013-01-11 18:04:00,
2013-01-11 10:09:00,31.3,23.9,27.58,SW,225,0.4,1.1,74,0.00,,,0.00,WUHU216HW,2013-01-11 18:09:00,
2013-01-11 10:14:00,32.2,23.2,27.59,SW,225,1.8,1.8,69,0.00,,,0.00,WUHU216HW,2013-01-11 18:14:00,
2013-01-11 10:19:00,32.8,24.0,27.59,SW,225,0.2,1.8,70,0.00,,,0.00,WUHU216HW,2013-01-11 18:19:00,
2013-01-11 10:24:00,33.3,24.8,27.59,SW,225,0.2,0.4,71,0.00,,,0.00,WUHU216HW,2013-01-11 18:24:00,
2013-01-11 10:29:00,33.5,23.6,27.59,NE,45,2.0,2.0,67,0.00,,,0.00,WUHU216HW,2013-01-11 18:29:00,
2013-01-11 10:34:00,33.5,23.9,27.60,NE,45,0.7,2.0,68,0.00,,,0.00,WUHU216HW,2013-01-11 18:34:00,
2013-01-11 10:39:00,32.4,21.6,27.60,NE,45,0.2,2.5,64,0.00,,,0.00,WUHU216HW,2013-01-11 18:39:00,
2013-01-11 10:44:00,31.1,20.7,27.60,NE,45,1.3,2.5,65,0.00,,,0.00,WUHU216HW,2013-01-11 18:44:00,
2013-01-11 10:49:00,31.5,22.1,27.60,NE,45,0.4,1.6,68,0.00,,,0.00,WUHU216HW,2013-01-11 18:49:00,
2013-01-11 10:54:00,31.7,21.6,27.60,NE,45,0.4,1.1,66,0.00,,,0.00,WUHU216HW,2013-01-11 18:54:00,
2013-01-11 10:59:00,32.2,21.8,27.60,NE,45,1.6,1.6,65,0.00,,,0.00,WUHU216HW,2013-01-11 18:59:00,
2013-01-11 11:04:00,33.8,23.6,27.60,NE,45,0.4,1.8,66,0.00,,,0.00,WUHU216HW,2013-01-11 19:04:00,
2013-01-11 11:09:00,34.6,21.7,27.60,NE,45,1.3,1.8,59,0.00,,,0.00,WUHU216HW,2013-01-11 19:09:00,
2013-01-11 11:14:00,34.7,23.0,27.60,NE,45,1.3,2.5,62,0.00,,,0.00,WUHU216HW,2013-01-11 19:14:00,
2013-01-11 11:19:00,34.4,22.7,27.60,NE,45,0.0,2.9,62,0.00,,,0.00,WUHU216HW,2013-01-11 19:19:00,
2013-01-11 11:24:00,34.6,23.6,27.60,NE,45,0.2,2.9,64,0.00,,,0.00,WUHU216HW,2013-01-11 19:24:00,
2013-01-11 11:29:00,36.0,21.8,27.60,NE,45,0.4,0.7,56,0.00,,,0.00,WUHU216HW,2013-01-11 19:29:00,
2013-01-11 11:34:00,37.4,24.4,27.60,NE,45,0.2,1.1,59,0.00,,,0.00,WUHU216HW,2013-01-11 19:34:00,
2013-01-11 11:39:00,38.5,24.9,27.59,NE,45,1.1,1.1,58,0.00,,,0.00,WUHU216HW,2013-01-11 19:39:00,
2013-01-11 11:44:00,38.5,24.9,27.59,ESE,113,0.4,1.1,58,0.00,,,0.00,WUHU216HW,2013-01-11 19:44:00,
2013-01-11 11:49:00,38.5,22.8,27.59,SE,135,0.0,1.1,53,0.00,,,0.00,WUHU216HW,2013-01-11 19:49:00,
2013-01-11 11:54:00,38.0,24.0,27.59,ENE,68,1.3,1.3,57,0.00,,,0.00,WUHU216HW,2013-01-11 19:54:00,
2013-01-11 11:59:00,37.3,23.4,27.59,NNW,338,0.0,1.3,57,0.00,,,0.00,WUHU216HW,2013-01-11 19:59:00,
2013-01-11 12:04:00,36.0,22.2,27.59,NW,315,0.0,1.1,57,0.00,,,0.00,WUHU216HW,2013-01-11 20:04:00,
2013-01-11 12:09:00,34.9,21.6,27.59,ENE,68,1.1,1.1,58,0.00,,,0.00,WUHU216HW,2013-01-11 20:09:00,
2013-01-11 12:14:00,33.8,19.7,27.59,SW,225,1.1,1.6,56,0.00,,,0.00,WUHU216HW,2013-01-11 20:14:00,
2013-01-11 12:19:00,32.8,20.0,27.60,NW,315,0.0,1.6,59,0.00,,,0.00,WUHU216HW,2013-01-11 20:19:00,
2013-01-11 12:24:00,32.6,20.6,27.59,NW,315,1.1,1.8,61,0.00,,,0.00,WUHU216HW,2013-01-11 20:24:00,
2013-01-11 12:29:00,32.4,20.5,27.60,NW,315,0.7,1.8,61,0.00,,,0.00,WUHU216HW,2013-01-11 20:29:00,
2013-01-11 12:34:00,32.6,20.6,27.60,NW,315,0.0,1.1,61,0.00,,,0.00,WUHU216HW,2013-01-11 20:34:00,
2013-01-11 12:39:00,33.5,21.8,27.60,NW,315,0.9,3.1,62,0.00,,,0.00,WUHU216HW,2013-01-11 20:39:00,
2013-01-11 12:44:00,35.6,22.8,27.60,NW,315,0.0,3.1,59,0.00,,,0.00,WUHU216HW,2013-01-11 20:44:00,
2013-01-11 12:49:00,34.9,19.1,27.60,NW,315,2.5,2.5,52,0.00,,,0.00,WUHU216HW,2013-01-11 20:49:00,
2013-01-11 12:54:00,34.2,20.1,27.61,NW,315,0.0,2.5,56,0.00,,,0.00,WUHU216HW,2013-01-11 20:54:00,
2013-01-11 12:59:00,33.5,18.6,27.60,NW,315,0.4,1.1,54,0.00,,,0.00,WUHU216HW,2013-01-11 20:59:00,
2013-01-11 13:04:00,33.1,18.6,27.60,NW,315,0.0,1.1,55,0.00,,,0.00,WUHU216HW,2013-01-11 21:04:00,
2013-01-11 13:09:00,32.9,19.4,27.60,NW,315,0.2,1.1,57,0.00,,,0.00,WUHU216HW,2013-01-11 21:09:00,
2013-01-11 13:14:00,33.3,19.2,27.60,NW,315,0.2,4.3,56,0.00,,,0.00,WUHU216HW,2013-01-11 21:14:00,
2013-01-11 13:19:00,33.1,19.1,27.60,NW,315,0.2,4.3,56,0.00,,,0.00,WUHU216HW,2013-01-11 21:19:00,
2013-01-11 13:24:00,32.2,18.3,27.61,NW,315,0.4,2.5,56,0.00,,,0.00,WUHU216HW,2013-01-11 21:24:00,
2013-01-11 13:29:00,31.3,17.4,27.61,NW,315,0.7,2.5,56,0.00,,,0.00,WUHU216HW,2013-01-11 21:29:00,
2013-01-11 13:34:00,31.1,17.7,27.61,NW,315,0.0,1.8,57,0.00,,,0.00,WUHU216HW,2013-01-11 21:34:00,
2013-01-11 13:39:00,31.3,16.6,27.61,NW,315,0.7,1.8,54,0.00,,,0.00,WUHU216HW,2013-01-11 21:39:00,
2013-01-11 13:44:00,31.1,17.7,27.61,NW,315,0.4,1.8,57,0.00,,,0.00,WUHU216HW,2013-01-11 21:44:00,
2013-01-11 13:49:00,31.1,18.1,27.61,NW,315,0.4,1.3,58,0.00,,,0.00,WUHU216HW,2013-01-11 21:49:00,
2013-01-11 13:54:00,31.3,18.6,27.62,NW,315,0.0,0.4,59,0.00,,,0.00,WUHU216HW,2013-01-11 21:54:00,
2013-01-11 13:59:00,31.5,19.3,27.62,NW,315,0.4,0.7,60,0.00,,,0.00,WUHU216HW,2013-01-11 21:59:00,
2013-01-11 14:04:00,31.9,19.6,27.62,NW,315,0.0,0.7,60,0.00,,,0.00,WUHU216HW,2013-01-11 22:04:00,
2013-01-11 14:09:00,32.2,18.3,27.62,NW,315,2.0,2.0,56,0.00,,,0.00,WUHU216HW,2013-01-11 22:09:00,
2013-01-11 14:14:00,31.7,18.2,27.62,NW,315,0.0,2.0,57,0.00,,,0.00,WUHU216HW,2013-01-11 22:14:00,
2013-01-11 14:19:00,31.1,17.2,27.62,NW,315,1.8,1.8,56,0.00,,,0.00,WUHU216HW,2013-01-11 22:19:00,
2013-01-11 14:24:00,31.0,17.9,27.63,NW,315,0.4,1.8,58,0.00,,,0.00,WUHU216HW,2013-01-11 22:24:00,
2013-01-11 14:29:00,31.0,16.7,27.63,NW,315,0.2,0.4,55,0.00,,,0.00,WUHU216HW,2013-01-11 22:29:00,
2013-01-11 14:34:00,30.8,16.8,27.62,NW,315,0.0,1.1,56,0.00,,,0.00,WUHU216HW,2013-01-11 22:34:00,
2013-01-11 14:39:00,30.6,17.6,27.63,NW,315,0.0,1.1,58,0.00,,,0.00,WUHU216HW,2013-01-11 22:39:00,
2013-01-11 14:44:00,31.1,18.1,27.63,NW,315,0.0,0.4,58,0.00,,,0.00,WUHU216HW,2013-01-11 22:44:00,
2013-01-11 14:49:00,32.0,19.4,27.63,NW,315,0.0,0.4,59,0.00,,,0.00,WUHU216HW,2013-01-11 22:49:00,
2013-01-11 14:54:00,31.9,15.8,27.63,NW,315,0.7,1.3,51,0.00,,,0.00,WUHU216HW,2013-01-11 22:54:00,
2013-01-11 14:59:00,31.3,16.6,27.63,NW,315,0.2,1.3,54,0.00,,,0.00,WUHU216HW,2013-01-11 22:59:00,
2013-01-11 15:04:00,30.8,17.3,27.63,NW,315,0.0,0.7,57,0.00,,,0.00,WUHU216HW,2013-01-11 23:04:00,
2013-01-11 15:09:00,30.6,16.3,27.64,NW,315,0.0,0.4,55,0.00,,,0.00,WUHU216HW,2013-01-11 23:09:00,
2013-01-11 15:14:00,30.6,17.1,27.64,NW,315,0.0,0.4,57,0.00,,,0.00,WUHU216HW,2013-01-11 23:14:00,
2013-01-11 15:19:00,31.0,16.2,27.64,NW,315,0.2,1.1,54,0.00,,,0.00,WUHU216HW,2013-01-11 23:19:00,
2013-01-11 15:24:00,31.7,17.7,27.64,NW,315,0.2,1.1,56,0.00,,,0.00,WUHU216HW,2013-01-11 23:24:00,
2013-01-11 15:29:00,32.2,16.9,27.65,NW,315,0.4,0.7,53,0.00,,,0.00,WUHU216HW,2013-01-11 23:29:00,
2013-01-11 15:34:00,31.0,15.4,27.65,NW,315,1.1,1.1,52,0.00,,,0.00,WUHU216HW,2013-01-11 23:34:00,
2013-01-11 15:39:00,29.7,15.0,27.65,NW,315,0.0,1.3,54,0.00,,,0.00,WUHU216HW,2013-01-11 23:39:00,
2013-01-11 15:44:00,29.0,14.8,27.65,NW,315,0.0,1.3,55,0.00,,,0.00,WUHU216HW,2013-01-11 23:44:00,
2013-01-11 15:49:00,28.4,14.8,27.65,NW,315,0.9,1.1,56,0.00,,,0.00,WUHU216HW,2013-01-11 23:49:00,
2013-01-11 15:54:00,27.9,14.6,27.65,NW,315,0.0,1.1,57,0.00,,,0.00,WUHU216HW,2013-01-11 23:54:00,
2013-01-11 15:59:00,27.5,14.7,27.65,NW,315,0.0,0.7,58,0.00,,,0.00,WUHU216HW,2013-01-11 23:59:00,
2013-01-11 16:04:00,26.5,14.8,27.65,NW,315,0.0,0.4,61,0.00,,,0.00,WUHU216HW,2013-01-12 00:04:00,
2013-01-11 16:09:00,25.7,14.1,27.66,NW,315,0.0,0.0,61,0.00,,,0.00,WUHU216HW,2013-01-12 00:09:00,
2013-01-11 16:14:00,24.8,13.7,27.66,NW,315,0.0,0.0,62,0.00,,,0.00,WUHU216HW,2013-01-12 00:14:00,
2013-01-11 16:19:00,24.1,13.7,27.66,NW,315,0.0,0.0,64,0.00,,,0.00,WUHU216HW,2013-01-12 00:19:00,
2013-01-11 16:24:00,23.8,14.1,27.66,NW,315,0.0,0.0,66,0.00,,,0.00,WUHU216HW,2013-01-12 00:24:00,
2013-01-11 16:29:00,23.2,13.9,27.66,NW,315,0.0,0.0,67,0.00,,,0.00,WUHU216HW,2013-01-12 00:29:00,
2013-01-11 16:34:00,22.7,13.7,27.66,NW,315,0.0,0.0,68,0.00,,,0.00,WUHU216HW,2013-01-12 00:34:00,
2013-01-11 16:39:00,22.1,13.1,27.66,NW,315,0.0,0.0,68,0.00,,,0.00,WUHU216HW,2013-01-12 00:39:00,
2013-01-11 16:44:00,21.8,13.5,27.66,NW,315,0.0,0.0,70,0.00,,,0.00,WUHU216HW,2013-01-12 00:44:00,
2013-01-11 16:49:00,21.4,13.4,27.66,NW,315,0.0,0.0,71,0.00,,,0.00,WUHU216HW,2013-01-12 00:49:00,
2013-01-11 16:54:00,21.1,13.1,27.66,NW,315,0.0,0.0,71,0.00,,,0.00,WUHU216HW,2013-01-12 00:54:00,
2013-01-11 16:59:00,20.3,12.7,27.67,NW,315,0.0,0.4,72,0.00,,,0.00,WUHU216HW,2013-01-12 00:59:00,
2013-01-11 17:04:00,19.6,12.0,27.66,NW,315,0.0,0.4,72,0.00,,,0.00,WUHU216HW,2013-01-12 01:04:00,
2013-01-11 17:09:00,19.1,12.1,27.66,NW,315,0.2,0.2,74,0.00,,,0.00,WUHU216HW,2013-01-12 01:09:00,
2013-01-11 17:14:00,18.7,12.0,27.66,NW,315,0.0,0.2,75,0.00,,,0.00,WUHU216HW,2013-01-12 01:14:00,
2013-01-11 17:19:00,18.4,11.3,27.67,NW,315,0.2,0.4,74,0.00,,,0.00,WUHU216HW,2013-01-12 01:19:00,
2013-01-11 17:24:00,18.0,11.1,27.67,NW,315,0.0,0.4,74,0.00,,,0.00,WUHU216HW,2013-01-12 01:24:00,
2013-01-11 17:29:00,17.6,11.0,27.67,NW,315,0.0,0.2,75,0.00,,,0.00,WUHU216HW,2013-01-12 01:29:00,
2013-01-11 17:34:00,17.5,11.1,27.67,NW,315,0.0,0.2,76,0.00,,,0.00,WUHU216HW,2013-01-12 01:34:00,
2013-01-11 17:39:00,16.9,10.6,27.67,NW,315,0.0,0.2,76,0.00,,,0.00,WUHU216HW,2013-01-12 01:39:00,
2013-01-11 17:44:00,16.6,10.3,27.67,NW,315,0.0,0.2,76,0.00,,,0.00,WUHU216HW,2013-01-12 01:44:00,
2013-01-11 17:49:00,16.2,9.9,27.68,NW,315,0.0,0.0,76,0.00,,,0.00,WUHU216HW,2013-01-12 01:49:00,
2013-01-11 17:54:00,16.0,10.1,27.68,NW,315,0.0,0.0,77,0.00,,,0.00,WUHU216HW,2013-01-12 01:54:00,
2013-01-11 17:59:00,15.5,9.3,27.68,NW,315,0.0,0.0,76,0.00,,,0.00,WUHU216HW,2013-01-12 01:59:00,
2013-01-11 18:04:00,15.3,9.4,27.68,NW,315,0.0,0.2,77,0.00,,,0.00,WUHU216HW,2013-01-12 02:04:00,
2013-01-11 18:09:00,14.9,9.0,27.68,NW,315,0.0,0.2,77,0.00,,,0.00,WUHU216HW,2013-01-12 02:09:00,
2013-01-11 18:14:00,14.8,8.8,27.68,NW,315,0.0,0.0,77,0.00,,,0.00,WUHU216HW,2013-01-12 02:14:00,
2013-01-11 18:19:00,14.4,8.5,27.68,NW,315,0.0,0.2,77,0.00,,,0.00,WUHU216HW,2013-01-12 02:19:00,
2013-01-11 18:24:00,14.0,8.1,27.68,NW,315,0.2,0.2,77,0.00,,,0.00,WUHU216HW,2013-01-12 02:24:00,
2013-01-11 18:29:00,13.7,7.7,27.69,NW,315,0.2,0.2,77,0.00,,,0.00,WUHU216HW,2013-01-12 02:29:00,
2013-01-11 18:34:00,13.3,7.8,27.69,NW,315,0.0,0.2,78,0.00,,,0.00,WUHU216HW,2013-01-12 02:34:00,
2013-01-11 18:39:00,13.0,7.4,27.69,NW,315,0.0,0.0,78,0.00,,,0.00,WUHU216HW,2013-01-12 02:39:00,
2013-01-11 18:44:00,12.4,7.1,27.69,NW,315,0.0,0.2,79,0.00,,,0.00,WUHU216HW,2013-01-12 02:44:00,
2013-01-11 18:49:00,11.9,6.6,27.68,NW,315,0.0,0.2,79,0.00,,,0.00,WUHU216HW,2013-01-12 02:49:00,
2013-01-11 18:54:00,11.7,6.4,27.68,NW,315,0.0,0.2,79,0.00,,,0.00,WUHU216HW,2013-01-12 02:54:00,
2013-01-11 18:59:00,11.3,6.3,27.69,NW,315,0.2,0.2,80,0.00,,,0.00,WUHU216HW,2013-01-12 02:59:00,
2013-01-11 19:04:00,11.2,6.1,27.68,NW,315,0.0,0.2,80,0.00,,,0.00,WUHU216HW,2013-01-12 03:04:00,
2013-01-11 19:09:00,10.8,6.0,27.68,NW,315,0.0,0.2,81,0.00,,,0.00,WUHU216HW,2013-01-12 03:09:00,
2013-01-11 19:14:00,10.4,5.7,27.68,NW,315,0.0,0.0,81,0.00,,,0.00,WUHU216HW,2013-01-12 03:14:00,
2013-01-11 19:19:00,10.1,5.0,27.68,NW,315,0.4,0.4,80,0.00,,,0.00,WUHU216HW,2013-01-12 03:19:00,
2013-01-11 19:24:00,9.7,5.1,27.68,NW,315,0.2,0.4,81,0.00,,,0.00,WUHU216HW,2013-01-12 03:24:00,
2013-01-11 19:29:00,9.7,5.3,27.68,NW,315,0.0,0.4,82,0.00,,,0.00,WUHU216HW,2013-01-12 03:29:00,
2013-01-11 19:34:00,9.5,5.1,27.68,NW,315,0.0,0.2,82,0.00,,,0.00,WUHU216HW,2013-01-12 03:34:00,
2013-01-11 19:39:00,9.4,5.2,27.68,NW,315,0.0,0.0,83,0.00,,,0.00,WUHU216HW,2013-01-12 03:39:00,
2013-01-11 19:44:00,9.0,4.9,27.68,NW,315,0.0,0.0,83,0.00,,,0.00,WUHU216HW,2013-01-12 03:44:00,
2013-01-11 19:49:00,8.8,4.4,27.68,NW,315,0.0,0.0,82,0.00,,,0.00,WUHU216HW,2013-01-12 03:49:00,
2013-01-11 19:54:00,8.5,4.2,27.69,NW,315,0.2,0.2,82,0.00,,,0.00,WUHU216HW,2013-01-12 03:54:00,
2013-01-11 19:59:00,8.3,4.1,27.68,NW,315,0.0,0.2,83,0.00,,,0.00,WUHU216HW,2013-01-12 03:59:00,
2013-01-11 20:04:00,7.9,3.8,27.68,NW,315,0.0,0.2,83,0.00,,,0.00,WUHU216HW,2013-01-12 04:04:00,
2013-01-11 20:09:00,7.7,3.6,27.68,NW,315,0.0,0.2,83,0.00,,,0.00,WUHU216HW,2013-01-12 04:09:00,
2013-01-11 20:14:00,7.6,3.4,27.69,NW,315,0.0,0.2,83,0.00,,,0.00,WUHU216HW,2013-01-12 04:14:00,
2013-01-11 20:19:00,7.2,3.1,27.69,NW,315,0.0,0.0,83,0.00,,,0.00,WUHU216HW,2013-01-12 04:19:00,
2013-01-11 20:24:00,7.0,2.9,27.68,NW,315,0.0,0.0,83,0.00,,,0.00,WUHU216HW,2013-01-12 04:24:00,
2013-01-11 20:29:00,6.8,2.7,27.69,NW,315,0.0,0.0,83,0.00,,,0.00,WUHU216HW,2013-01-12 04:29:00,
2013-01-11 20:34:00,6.7,2.5,27.68,NW,315,0.0,0.2,83,0.00,,,0.00,WUHU216HW,2013-01-12 04:34:00,
2013-01-11 20:39:00,6.5,2.3,27.68,NW,315,0.0,0.2,83,0.00,,,0.00,WUHU216HW,2013-01-12 04:39:00,
2013-01-11 20:44:00,6.3,2.4,27.68,NW,315,0.0,0.0,84,0.00,,,0.00,WUHU216HW,2013-01-12 04:44:00,
2013-01-11 20:49:00,6.3,2.2,27.69,NW,315,0.2,0.2,83,0.00,,,0.00,WUHU216HW,2013-01-12 04:49:00,
2013-01-11 20:54:00,6.1,2.3,27.69,NW,315,0.0,0.2,84,0.00,,,0.00,WUHU216HW,2013-01-12 04:54:00,
2013-01-11 20:59:00,6.1,2.0,27.69,NW,315,0.0,0.9,83,0.00,,,0.00,WUHU216HW,2013-01-12 04:59:00,
2013-01-11 21:00:00,6.1,2.0,27.69,NW,315,0.0,0.9,83,0.00,,,0.00,WUHU216HW,2013-01-12 05:00:00,
2013-01-11 21:02:00,6.1,2.3,27.69,NW,315,0.0,0.9,84,0.00,,,0.00,WUHU216HW,2013-01-12 05:02:00,
2013-01-11 21:03:00,6.1,2.3,27.69,NW,315,0.0,0.9,84,0.00,,,0.00,WUHU216HW,2013-01-12 05:03:00,
2013-01-11 21:08:00,6.3,2.7,27.69,NW,315,0.0,0.4,85,0.00,,,0.00,WUHU216HW,2013-01-12 05:08:00,
2013-01-11 21:13:00,6.3,2.7,27.69,NW,315,0.4,1.1,85,0.00,,,0.00,WUHU216HW,2013-01-12 05:13:00,
2013-01-11 21:18:00,6.7,3.8,27.70,NW,315,0.0,1.1,88,0.00,,,0.00,WUHU216HW,2013-01-12 05:18:00,
2013-01-11 21:23:00,6.8,3.5,27.71,NW,315,0.0,0.4,86,0.00,,,0.00,WUHU216HW,2013-01-12 05:23:00,
2013-01-11 21:28:00,7.0,4.0,27.71,NW,315,0.0,0.0,87,0.00,,,0.00,WUHU216HW,2013-01-12 05:28:00,
2013-01-11 21:33:00,7.4,3.8,27.71,NW,315,0.0,0.0,85,0.00,,,0.00,WUHU216HW,2013-01-12 05:33:00,
2013-01-11 21:38:00,7.6,4.7,27.70,NW,315,0.0,0.0,88,0.00,,,0.00,WUHU216HW,2013-01-12 05:38:00,
2013-01-11 21:43:00,7.9,4.6,27.70,NW,315,0.0,0.0,86,0.00,,,0.00,WUHU216HW,2013-01-12 05:43:00,
2013-01-11 21:48:00,8.3,5.7,27.70,NW,315,0.0,0.0,89,0.00,,,0.00,WUHU216HW,2013-01-12 05:48:00,
2013-01-11 21:53:00,8.5,5.9,27.69,NW,315,0.0,0.0,89,0.00,,,0.00,WUHU216HW,2013-01-12 05:53:00,
2013-01-11 21:58:00,8.8,6.5,27.69,NW,315,0.0,0.0,90,0.00,,,0.00,WUHU216HW,2013-01-12 05:58:00,
2013-01-11 22:03:00,9.0,6.9,27.69,NW,315,0.0,0.0,91,0.00,,,0.00,WUHU216HW,2013-01-12 06:03:00,
2013-01-11 22:08:00,9.4,7.0,27.69,NW,315,0.0,0.0,90,0.00,,,0.00,WUHU216HW,2013-01-12 06:08:00,
2013-01-11 22:13:00,9.5,7.5,27.68,NW,315,0.0,0.0,91,0.00,,,0.00,WUHU216HW,2013-01-12 06:13:00,
2013-01-11 22:18:00,9.7,7.7,27.68,NW,315,0.0,0.0,91,0.00,,,0.00,WUHU216HW,2013-01-12 06:18:00,
2013-01-11 22:23:00,10.1,7.7,27.68,NW,315,0.0,0.0,90,0.00,,,0.00,WUHU216HW,2013-01-12 06:23:00,
2013-01-11 22:28:00,10.3,7.7,27.68,NW,315,0.0,0.0,89,0.00,,,0.00,WUHU216HW,2013-01-12 06:28:00,
2013-01-11 22:33:00,10.6,8.6,27.68,NW,315,0.0,0.0,91,0.00,,,0.00,WUHU216HW,2013-01-12 06:33:00,
2013-01-11 22:38:00,10.8,8.7,27.68,NW,315,0.0,0.0,91,0.00,,,0.00,WUHU216HW,2013-01-12 06:38:00,
2013-01-11 22:43:00,10.8,8.5,27.67,NW,315,0.0,0.0,90,0.00,,,0.00,WUHU216HW,2013-01-12 06:43:00,
2013-01-11 22:48:00,11.0,8.6,27.67,NW,315,0.0,0.0,90,0.00,,,0.00,WUHU216HW,2013-01-12 06:48:00,
2013-01-11 22:53:00,11.3,9.0,27.67,NW,315,0.0,0.0,90,0.00,,,0.00,WUHU216HW,2013-01-12 06:53:00,
2013-01-11 22:58:00,11.9,9.5,27.67,NW,315,0.0,0.0,90,0.00,,,0.00,WUHU216HW,2013-01-12 06:58:00,
2013-01-11 23:03:00,12.4,10.1,27.67,NW,315,0.0,0.0,90,0.00,,,0.00,WUHU216HW,2013-01-12 07:03:00,
2013-01-11 23:08:00,12.8,10.4,27.67,NW,315,0.0,0.0,90,0.00,,,0.00,WUHU216HW,2013-01-12 07:08:00,
2013-01-11 23:13:00,13.3,11.0,27.66,NW,315,0.0,0.0,90,0.00,,,0.00,WUHU216HW,2013-01-12 07:13:00,
2013-01-11 23:18:00,13.5,10.9,27.66,NW,315,0.0,0.0,89,0.00,,,0.00,WUHU216HW,2013-01-12 07:18:00,
2013-01-11 23:23:00,14.2,12.3,27.66,NW,315,0.0,0.0,92,0.00,,,0.00,WUHU216HW,2013-01-12 07:23:00,
2013-01-11 23:28:00,14.8,12.9,27.66,NW,315,0.0,0.0,92,0.00,,,0.00,WUHU216HW,2013-01-12 07:28:00,
2013-01-11 23:33:00,15.5,13.5,27.66,NW,315,0.0,0.0,92,0.00,,,0.00,WUHU216HW,2013-01-12 07:33:00,
2013-01-11 23:38:00,15.5,13.2,27.66,NW,315,0.0,0.0,91,0.00,,,0.00,WUHU216HW,2013-01-12 07:38:00,
2013-01-11 23:43:00,15.5,13.0,27.66,NW,315,0.0,0.0,90,0.00,,,0.00,WUHU216HW,2013-01-12 07:43:00,
2013-01-11 23:48:00,15.7,13.1,27.65,NW,315,0.0,0.7,90,0.00,,,0.00,WUHU216HW,2013-01-12 07:48:00,
2013-01-11 23:53:00,15.5,12.8,27.65,NW,315,0.0,0.7,89,0.00,,,0.00,WUHU216HW,2013-01-12 07:53:00,
2013-01-11 23:58:00,15.5,12.8,27.65,NW,315,0.0,0.0,89,0.00,,,0.00,WUHU216HW,2013-01-12 07:58:00,